Time,TemperatureF,DewpointF,PressureIn,WindDirection,WindDirectionDegrees,WindSpeedMPH,WindSpeedGustMPH,Humidity,HourlyPrecipIn,Conditions,Clouds,dailyrainin,SoftwareType,DateUTC
2013-04-09 00:00:00,43.9,42.3,30.27,East,94,0.0,2.0,94,0.00,,---,0.05,VWS V14.01,2013-04-09 07:00:00,
2013-04-09 00:05:00,43.9,42.3,30.27,East,94,0.0,0.0,94,0.00,,---,0.00,VWS V14.01,2013-04-09 07:05:00,
2013-04-09 00:10:00,43.9,42.3,30.28,SSW,192,0.0,1.0,94,0.00,,---,0.00,VWS V14.01,2013-04-09 07:10:00,
2013-04-09 00:15:00,43.9,42.3,30.27,SSW,192,0.0,1.0,94,0.00,,---,0.00,VWS V14.01,2013-04-09 07:15:00,
2013-04-09 00:20:00,43.7,42.1,30.28,South,190,0.0,1.0,94,0.00,,---,0.00,VWS V14.01,2013-04-09 07:20:00,
2013-04-09 00:25:00,43.5,41.9,30.28,South,190,0.0,1.0,94,0.00,,---,0.00,VWS V14.01,2013-04-09 07:25:00,
2013-04-09 00:30:00,43.3,41.7,30.28,South,190,0.0,1.0,94,0.00,,---,0.00,VWS V14.01,2013-04-09 07:30:00,
2013-04-09 00:35:00,43.2,41.6,30.28,ESE,109,0.0,1.0,94,0.00,,---,0.00,VWS V14.01,2013-04-09 07:35:00,
2013-04-09 00:40:00,43.1,41.5,30.28,ESE,109,0.0,1.0,94,0.00,,---,0.00,VWS V14.01,2013-04-09 07:40:00,
2013-04-09 00:45:00,43.0,41.4,30.28,ESE,109,0.0,1.0,94,0.00,,---,0.00,VWS V14.01,2013-04-09 07:45:00,
2013-04-09 00:50:00,42.8,41.2,30.29,ESE,109,0.0,0.0,94,0.00,,---,0.00,VWS V14.01,2013-04-09 07:50:00,
2013-04-09 00:55:00,42.5,40.9,30.28,ESE,109,0.0,0.0,94,0.00,,---,0.00,VWS V14.01,2013-04-09 07:55:00,
2013-04-09 01:00:00,42.2,40.6,30.28,ESE,109,0.0,0.0,94,0.00,,---,0.00,VWS V14.01,2013-04-09 08:00:00,
2013-04-09 01:05:00,42.2,40.6,30.28,ESE,109,0.0,0.0,94,0.00,,---,0.00,VWS V14.01,2013-04-09 08:05:00,
2013-04-09 01:10:00,42.1,40.8,30.29,ESE,109,0.0,0.0,95,0.00,,---,0.00,VWS V14.01,2013-04-09 08:10:00,
2013-04-09 01:15:00,42.1,40.8,30.29,ESE,109,0.0,0.0,95,0.00,,---,0.00,VWS V14.01,2013-04-09 08:15:00,
2013-04-09 01:20:00,42.2,40.9,30.29,ESE,109,0.0,0.0,95,0.00,,---,0.00,VWS V14.01,2013-04-09 08:20:00,
2013-04-09 01:25:00,42.2,40.9,30.29,ESE,109,0.0,0.0,95,0.00,,---,0.00,VWS V14.01,2013-04-09 08:25:00,
2013-04-09 01:30:00,42.2,40.9,30.30,ESE,109,0.0,0.0,95,0.00,,---,0.00,VWS V14.01,2013-04-09 08:30:00,
2013-04-09 01:35:00,42.2,40.9,30.30,ESE,121,0.0,0.0,95,0.00,,---,0.00,VWS V14.01,2013-04-09 08:35:00,
2013-04-09 01:40:00,42.3,41.0,30.30,ESE,121,0.0,0.0,95,0.00,,---,0.00,VWS V14.01,2013-04-09 08:40:00,
2013-04-09 01:45:00,42.4,41.1,30.30,ESE,121,0.0,0.0,95,0.00,,---,0.00,VWS V14.01,2013-04-09 08:45:00,
2013-04-09 01:50:00,42.4,41.1,30.30,ESE,121,0.0,0.0,95,0.00,,---,0.00,VWS V14.01,2013-04-09 08:50:00,
2013-04-09 01:55:00,42.4,41.1,30.30,ESE,121,0.0,0.0,95,0.00,,---,0.00,VWS V14.01,2013-04-09 08:55:00,
2013-04-09 02:00:00,42.4,41.1,30.30,ESE,121,0.0,0.0,95,0.00,,---,0.00,VWS V14.01,2013-04-09 09:00:00,
2013-04-09 02:05:00,42.4,41.1,30.30,ESE,121,0.0,0.0,95,0.00,,---,0.00,VWS V14.01,2013-04-09 09:05:00,
2013-04-09 02:10:00,42.4,41.1,30.30,ESE,121,0.0,0.0,95,0.00,,---,0.00,VWS V14.01,2013-04-09 09:10:00,
2013-04-09 02:15:00,42.3,41.0,30.30,ESE,121,0.0,0.0,95,0.00,,---,0.00,VWS V14.01,2013-04-09 09:15:00,
2013-04-09 02:20:00,42.3,40.7,30.30,ESE,121,0.0,0.0,94,0.00,,---,0.00,VWS V14.01,2013-04-09 09:20:00,
2013-04-09 02:25:00,42.1,40.5,30.30,ESE,121,0.0,0.0,94,0.00,,---,0.00,VWS V14.01,2013-04-09 09:25:00,
2013-04-09 02:30:00,42.0,40.4,30.30,ESE,121,0.0,0.0,94,0.00,,---,0.00,VWS V14.01,2013-04-09 09:30:00,
2013-04-09 02:35:00,41.9,40.6,30.30,ESE,121,0.0,0.0,95,0.00,,---,0.00,VWS V14.01,2013-04-09 09:35:00,
2013-04-09 02:40:00,41.9,40.6,30.30,ESE,121,0.0,0.0,95,0.00,,---,0.00,VWS V14.01,2013-04-09 09:40:00,
2013-04-09 02:45:00,42.0,40.7,30.29,ENE,69,0.0,0.0,95,0.00,,---,0.00,VWS V14.01,2013-04-09 09:45:00,
2013-04-09 02:50:00,42.0,40.7,30.30,ESE,103,0.0,0.0,95,0.00,,---,0.00,VWS V14.01,2013-04-09 09:50:00,
2013-04-09 02:55:00,42.1,40.8,30.30,ESE,111,0.0,0.0,95,0.00,,---,0.00,VWS V14.01,2013-04-09 09:55:00,
2013-04-09 03:00:00,42.0,40.7,30.30,ESE,107,0.0,0.0,95,0.00,,---,0.00,VWS V14.01,2013-04-09 10:00:00,
2013-04-09 03:05:00,42.0,40.7,30.30,ESE,107,0.0,0.0,95,0.00,,---,0.00,VWS V14.01,2013-04-09 10:05:00,
2013-04-09 03:10:00,42.0,40.7,30.30,ESE,107,0.0,0.0,95,0.00,,---,0.00,VWS V14.01,2013-04-09 10:10:00,
2013-04-09 03:15:00,41.9,40.6,30.30,ESE,107,0.0,0.0,95,0.00,,---,0.00,VWS V14.01,2013-04-09 10:15:00,
2013-04-09 03:20:00,41.8,40.2,30.30,ESE,107,0.0,0.0,94,0.00,,---,0.00,VWS V14.01,2013-04-09 10:20:00,
2013-04-09 03:25:00,41.7,40.1,30.30,ESE,107,0.0,0.0,94,0.00,,---,0.00,VWS V14.01,2013-04-09 10:25:00,
2013-04-09 03:30:00,41.6,40.3,30.30,ESE,107,0.0,0.0,95,0.00,,---,0.00,VWS V14.01,2013-04-09 10:30:00,
2013-04-09 03:35:00,41.3,40.0,30.30,ESE,107,0.0,0.0,95,0.00,,---,0.00,VWS V14.01,2013-04-09 10:35:00,
2013-04-09 03:40:00,41.2,39.9,30.30,NE,51,0.0,0.0,95,0.00,,---,0.00,VWS V14.01,2013-04-09 10:40:00,
2013-04-09 03:45:00,41.1,39.8,30.30,NE,51,0.0,0.0,95,0.00,,---,0.00,VWS V14.01,2013-04-09 10:45:00,
2013-04-09 03:51:00,41.0,39.7,30.30,NE,51,0.0,0.0,95,0.00,,---,0.00,VWS V14.01,2013-04-09 10:51:00,
2013-04-09 03:57:00,40.9,39.6,30.31,NE,51,0.0,0.0,95,0.00,,---,0.00,VWS V14.01,2013-04-09 10:57:00,
2013-04-09 04:02:00,40.7,39.4,30.30,NE,51,0.0,0.0,95,0.00,,---,0.00,VWS V14.01,2013-04-09 11:02:00,
2013-04-09 04:07:00,40.6,39.3,30.31,NE,51,0.0,0.0,95,0.00,,---,0.00,VWS V14.01,2013-04-09 11:07:00,
2013-04-09 04:13:00,40.5,39.2,30.31,NE,51,0.0,0.0,95,0.00,,---,0.00,VWS V14.01,2013-04-09 11:13:00,
2013-04-09 04:18:00,40.4,39.1,30.31,NE,51,0.0,0.0,95,0.00,,---,0.00,VWS V14.01,2013-04-09 11:18:00,
2013-04-09 04:23:00,40.4,39.1,30.32,ENE,63,0.0,0.0,95,0.00,,---,0.00,VWS V14.01,2013-04-09 11:23:00,
2013-04-09 04:28:00,40.5,39.2,30.32,ENE,63,0.0,0.0,95,0.00,,---,0.00,VWS V14.01,2013-04-09 11:28:00,
2013-04-09 04:33:00,40.5,39.2,30.32,ENE,63,0.0,0.0,95,0.00,,---,0.00,VWS V14.01,2013-04-09 11:33:00,
2013-04-09 04:38:00,40.6,39.5,30.32,ENE,63,0.0,0.0,96,0.00,,---,0.00,VWS V14.01,2013-04-09 11:38:00,
2013-04-09 04:43:00,40.7,39.7,30.32,ENE,63,0.0,0.0,96,0.00,,---,0.00,VWS V14.01,2013-04-09 11:43:00,
2013-04-09 04:48:00,40.8,39.8,30.32,ENE,63,0.0,0.0,96,0.00,,---,0.00,VWS V14.01,2013-04-09 11:48:00,
2013-04-09 04:53:00,40.9,39.8,30.32,ENE,63,0.0,0.0,96,0.00,,---,0.00,VWS V14.01,2013-04-09 11:53:00,
2013-04-09 04:58:00,41.0,40.0,30.32,East,96,0.0,0.0,96,0.00,,---,0.00,VWS V14.01,2013-04-09 11:58:00,
2013-04-09 05:03:00,41.1,39.8,30.32,East,96,0.0,0.0,95,0.00,,---,0.00,VWS V14.01,2013-04-09 12:03:00,
2013-04-09 05:08:00,41.1,39.8,30.32,East,96,0.0,0.0,95,0.00,,---,0.00,VWS V14.01,2013-04-09 12:08:00,
2013-04-09 05:13:00,41.1,39.8,30.32,East,96,0.0,0.0,95,0.00,,---,0.00,VWS V14.01,2013-04-09 12:13:00,
2013-04-09 05:18:00,41.1,39.8,30.32,SSW,204,0.0,0.0,95,0.00,,---,0.00,VWS V14.01,2013-04-09 12:18:00,
2013-04-09 05:23:00,41.1,39.8,30.32,WSW,247,0.0,0.0,95,0.00,,---,0.00,VWS V14.01,2013-04-09 12:23:00,
2013-04-09 05:28:00,41.0,39.7,30.32,WSW,247,0.0,0.0,95,0.00,,---,0.00,VWS V14.01,2013-04-09 12:28:00,
2013-04-09 05:33:00,40.9,39.6,30.32,WSW,247,0.0,0.0,95,0.00,,---,0.00,VWS V14.01,2013-04-09 12:33:00,
2013-04-09 05:38:00,40.8,39.5,30.32,WSW,247,0.0,0.0,95,0.00,,---,0.00,VWS V14.01,2013-04-09 12:38:00,
2013-04-09 05:43:00,40.8,39.5,30.32,WSW,247,0.0,0.0,95,0.00,,---,0.00,VWS V14.01,2013-04-09 12:43:00,
2013-04-09 05:48:00,40.7,39.4,30.32,WSW,247,0.0,0.0,95,0.00,,---,0.00,VWS V14.01,2013-04-09 12:48:00,
2013-04-09 05:53:00,40.7,39.4,30.32,WSW,247,0.0,0.0,95,0.00,,---,0.00,VWS V14.01,2013-04-09 12:53:00,
2013-04-09 05:58:00,40.7,39.4,30.32,ENE,57,0.0,0.0,95,0.00,,---,0.00,VWS V14.01,2013-04-09 12:58:00,
2013-04-09 06:03:00,40.7,39.4,30.32,NE,38,0.0,0.0,95,0.00,,---,0.00,VWS V14.01,2013-04-09 13:03:00,
2013-04-09 06:08:00,40.8,39.5,30.32,SE,144,0.0,2.0,95,0.00,,---,0.00,VWS V14.01,2013-04-09 13:08:00,
2013-04-09 06:13:00,41.0,39.7,30.32,SW,218,1.0,2.0,95,0.00,,---,0.00,VWS V14.01,2013-04-09 13:13:00,
2013-04-09 06:18:00,41.1,39.5,30.32,WSW,254,1.0,2.0,94,0.00,,---,0.00,VWS V14.01,2013-04-09 13:18:00,
2013-04-09 06:23:00,41.2,39.6,30.32,ENE,73,0.0,2.0,94,0.00,,---,0.00,VWS V14.01,2013-04-09 13:23:00,
2013-04-09 06:28:00,41.2,39.6,30.32,NE,47,0.0,2.0,94,0.00,,---,0.00,VWS V14.01,2013-04-09 13:28:00,
2013-04-09 06:33:00,41.3,39.4,30.32,NE,41,0.0,5.0,93,0.00,,---,0.00,VWS V14.01,2013-04-09 13:33:00,
2013-04-09 06:38:00,41.3,39.4,30.32,WSW,258,0.0,5.0,93,0.00,,---,0.00,VWS V14.01,2013-04-09 13:38:00,
2013-04-09 06:43:00,41.3,39.4,30.32,NE,38,0.0,5.0,93,0.00,,---,0.00,VWS V14.01,2013-04-09 13:43:00,
2013-04-09 06:48:00,41.3,39.4,30.32,WNW,284,1.0,1.0,93,0.00,,---,0.00,VWS V14.01,2013-04-09 13:48:00,
2013-04-09 06:53:00,41.3,39.4,30.32,WNW,295,0.0,2.0,93,0.00,,---,0.00,VWS V14.01,2013-04-09 13:53:00,
2013-04-09 06:58:00,41.3,39.4,30.33,West,281,0.0,2.0,93,0.00,,---,0.00,VWS V14.01,2013-04-09 13:58:00,
2013-04-09 07:03:00,41.3,39.4,30.33,West,281,0.0,0.0,93,0.00,,---,0.00,VWS V14.01,2013-04-09 14:03:00,
2013-04-09 07:08:00,41.4,39.8,30.33,NNW,340,0.0,1.0,94,0.00,,---,0.00,VWS V14.01,2013-04-09 14:08:00,
2013-04-09 07:13:00,41.4,39.8,30.33,NNW,340,0.0,1.0,94,0.00,,---,0.00,VWS V14.01,2013-04-09 14:13:00,
2013-04-09 07:19:00,41.5,39.9,30.33,ESE,107,0.0,1.0,94,0.00,,---,0.00,VWS V14.01,2013-04-09 14:19:00,
2013-04-09 07:24:00,41.6,40.0,30.33,ENE,57,1.0,3.0,94,0.00,,---,0.00,VWS V14.01,2013-04-09 14:24:00,
2013-04-09 07:29:00,41.6,40.0,30.33,ENE,60,1.0,3.0,94,0.00,,---,0.00,VWS V14.01,2013-04-09 14:29:00,
2013-04-09 07:34:00,41.7,40.1,30.33,NE,51,0.0,2.0,94,0.00,,---,0.00,VWS V14.01,2013-04-09 14:34:00,
2013-04-09 07:39:00,41.8,40.2,30.33,NE,52,1.0,2.0,94,0.00,,---,0.00,VWS V14.01,2013-04-09 14:39:00,
2013-04-09 07:44:00,41.9,40.3,30.33,ENE,65,2.0,2.0,94,0.00,,---,0.00,VWS V14.01,2013-04-09 14:44:00,
2013-04-09 07:49:00,42.0,40.4,30.33,East,83,0.0,2.0,94,0.00,,---,0.00,VWS V14.01,2013-04-09 14:49:00,
2013-04-09 07:54:00,42.0,40.4,30.33,East,89,0.0,3.0,94,0.00,,---,0.00,VWS V14.01,2013-04-09 14:54:00,
2013-04-09 07:59:00,42.1,40.5,30.33,ESE,119,0.0,3.0,94,0.00,,---,0.00,VWS V14.01,2013-04-09 14:59:00,
2013-04-09 08:04:00,42.3,40.4,30.33,ESE,117,2.0,3.0,93,0.00,,---,0.00,VWS V14.01,2013-04-09 15:04:00,
2013-04-09 08:09:00,42.4,40.5,30.33,ESE,109,0.0,3.0,93,0.00,,---,0.00,VWS V14.01,2013-04-09 15:09:00,
2013-04-09 08:14:00,42.6,40.7,30.34,East,94,0.0,3.0,93,0.00,,---,0.00,VWS V14.01,2013-04-09 15:14:00,
2013-04-09 08:19:00,42.9,40.7,30.34,East,91,0.0,2.0,92,0.00,,---,0.00,VWS V14.01,2013-04-09 15:19:00,
2013-04-09 08:24:00,43.1,40.9,30.33,ESE,121,0.0,3.0,92,0.00,,---,0.00,VWS V14.01,2013-04-09 15:24:00,
2013-04-09 08:29:00,43.3,41.1,30.33,East,82,0.0,3.0,92,0.00,,---,0.00,VWS V14.01,2013-04-09 15:29:00,
2013-04-09 08:34:00,43.3,40.8,30.33,ESE,122,0.0,5.0,91,0.00,,---,0.00,VWS V14.01,2013-04-09 15:34:00,
2013-04-09 08:39:00,43.4,41.0,30.33,ESE,109,2.0,5.0,91,0.00,,---,0.00,VWS V14.01,2013-04-09 15:39:00,
2013-04-09 08:44:00,43.4,41.0,30.33,East,80,1.0,5.0,91,0.00,,---,0.00,VWS V14.01,2013-04-09 15:44:00,
2013-04-09 08:49:00,43.6,41.2,30.33,SE,127,1.0,7.0,91,0.00,,---,0.00,VWS V14.01,2013-04-09 15:49:00,
2013-04-09 08:54:00,43.9,41.5,30.33,East,96,2.0,7.0,91,0.00,,---,0.00,VWS V14.01,2013-04-09 15:54:00,
2013-04-09 08:59:00,44.1,41.4,30.33,ESE,120,1.0,7.0,90,0.00,,---,0.00,VWS V14.01,2013-04-09 15:59:00,
2013-04-09 09:04:00,44.1,41.4,30.32,ENE,78,0.0,5.0,90,0.00,,---,0.00,VWS V14.01,2013-04-09 16:04:00,
2013-04-09 09:09:00,44.3,41.6,30.32,ESE,123,2.0,5.0,90,0.00,,---,0.00,VWS V14.01,2013-04-09 16:09:00,
2013-04-09 09:14:00,44.5,41.5,30.32,ENE,74,0.0,5.0,89,0.00,,---,0.00,VWS V14.01,2013-04-09 16:14:00,
2013-04-09 09:20:00,44.8,41.8,30.32,ESE,110,1.0,3.0,89,0.00,,---,0.00,VWS V14.01,2013-04-09 16:20:00,
2013-04-09 09:25:00,45.2,41.9,30.32,North,5,0.0,3.0,88,0.00,,---,0.00,VWS V14.01,2013-04-09 16:25:00,
2013-04-09 09:30:00,45.5,41.9,30.32,SSE,159,1.0,3.0,87,0.00,,---,0.00,VWS V14.01,2013-04-09 16:30:00,
2013-04-09 09:35:00,45.8,42.2,30.32,ESE,120,3.0,4.0,87,0.00,,---,0.00,VWS V14.01,2013-04-09 16:35:00,
2013-04-09 09:40:00,45.8,41.5,30.32,SE,146,3.0,4.0,85,0.00,,---,0.00,VWS V14.01,2013-04-09 16:40:00,
2013-04-09 09:45:00,45.8,41.9,30.33,ESE,116,3.0,4.0,86,0.00,,---,0.00,VWS V14.01,2013-04-09 16:45:00,
2013-04-09 09:50:00,45.8,41.5,30.33,East,100,1.0,5.0,85,0.00,,---,0.00,VWS V14.01,2013-04-09 16:50:00,
2013-04-09 09:55:00,45.8,41.9,30.33,NNE,22,0.0,5.0,86,0.00,,---,0.00,VWS V14.01,2013-04-09 16:55:00,
2013-04-09 10:00:00,45.8,41.5,30.33,East,88,1.0,5.0,85,0.00,,---,0.00,VWS V14.01,2013-04-09 17:00:00,
2013-04-09 10:05:00,45.7,41.5,30.33,East,94,2.0,6.0,85,0.00,,---,0.00,VWS V14.01,2013-04-09 17:05:00,
2013-04-09 10:10:00,45.7,41.8,30.33,NE,53,3.0,6.0,86,0.00,,---,0.00,VWS V14.01,2013-04-09 17:10:00,
2013-04-09 10:15:00,45.8,41.5,30.33,NNE,16,2.0,6.0,85,0.00,,---,0.00,VWS V14.01,2013-04-09 17:15:00,
2013-04-09 10:20:00,46.0,41.8,30.33,SE,126,2.0,5.0,85,0.00,,---,0.00,VWS V14.01,2013-04-09 17:20:00,
2013-04-09 10:25:00,46.1,41.8,30.34,SE,126,1.0,5.0,85,0.00,,---,0.00,VWS V14.01,2013-04-09 17:25:00,
2013-04-09 10:30:00,46.3,41.7,30.34,SSE,167,1.0,5.0,84,0.00,,---,0.00,VWS V14.01,2013-04-09 17:30:00,
2013-04-09 10:35:00,46.4,41.5,30.34,WSW,244,0.0,3.0,83,0.00,,---,0.00,VWS V14.01,2013-04-09 17:35:00,
2013-04-09 10:40:00,46.5,41.6,30.34,SE,138,3.0,5.0,83,0.00,,---,0.00,VWS V14.01,2013-04-09 17:40:00,
2013-04-09 10:45:00,46.5,41.9,30.34,East,82,2.0,5.0,84,0.00,,---,0.00,VWS V14.01,2013-04-09 17:45:00,
2013-04-09 10:50:00,46.7,41.8,30.34,NE,47,2.0,6.0,83,0.00,,---,0.00,VWS V14.01,2013-04-09 17:50:00,
2013-04-09 10:55:00,46.8,41.9,30.34,SE,138,1.0,8.0,83,0.00,,---,0.00,VWS V14.01,2013-04-09 17:55:00,
2013-04-09 11:00:00,46.8,41.9,30.34,East,90,2.0,8.0,83,0.00,,---,0.00,VWS V14.01,2013-04-09 18:00:00,
2013-04-09 11:05:00,46.9,42.0,30.34,ENE,69,0.0,5.0,83,0.00,,---,0.00,VWS V14.01,2013-04-09 18:05:00,
2013-04-09 11:10:00,47.0,41.8,30.34,ESE,113,0.0,5.0,82,0.00,,---,0.00,VWS V14.01,2013-04-09 18:10:00,
2013-04-09 11:15:00,47.2,42.0,30.35,ESE,103,1.0,5.0,82,0.00,,---,0.00,VWS V14.01,2013-04-09 18:15:00,
2013-04-09 11:20:00,47.4,42.2,30.35,East,81,0.0,4.0,82,0.00,,---,0.00,VWS V14.01,2013-04-09 18:20:00,
2013-04-09 11:25:00,47.5,42.0,30.35,ESE,114,2.0,4.0,81,0.00,,---,0.00,VWS V14.01,2013-04-09 18:25:00,
2013-04-09 11:30:00,47.8,41.9,30.34,SE,127,0.0,4.0,80,0.00,,---,0.00,VWS V14.01,2013-04-09 18:30:00,
2013-04-09 11:35:00,48.1,42.2,30.35,SSE,158,1.0,3.0,80,0.00,,---,0.00,VWS V14.01,2013-04-09 18:35:00,
2013-04-09 11:40:00,48.5,42.0,30.34,East,86,1.0,9.0,78,0.00,,---,0.00,VWS V14.01,2013-04-09 18:40:00,
2013-04-09 11:45:00,48.7,42.5,30.34,SE,130,0.0,9.0,79,0.00,,---,0.00,VWS V14.01,2013-04-09 18:45:00,
2013-04-09 11:50:00,49.1,42.2,30.34,South,171,0.0,5.0,77,0.00,,---,0.00,VWS V14.01,2013-04-09 18:50:00,
2013-04-09 11:55:00,49.1,42.2,30.34,South,176,0.0,7.0,77,0.00,,---,0.00,VWS V14.01,2013-04-09 18:55:00,
2013-04-09 12:00:00,49.3,42.4,30.34,East,83,3.0,7.0,77,0.00,,---,0.00,VWS V14.01,2013-04-09 19:00:00,
2013-04-09 12:05:00,49.2,42.0,30.34,SE,134,1.0,5.0,76,0.00,,---,0.00,VWS V14.01,2013-04-09 19:05:00,
2013-04-09 12:10:00,49.2,42.0,30.34,ESE,123,1.0,6.0,76,0.00,,---,0.00,VWS V14.01,2013-04-09 19:10:00,
2013-04-09 12:15:00,49.1,42.2,30.34,SE,130,0.0,6.0,77,0.00,,---,0.00,VWS V14.01,2013-04-09 19:15:00,
2013-04-09 12:20:00,49.0,42.1,30.34,NE,39,2.0,4.0,77,0.00,,---,0.00,VWS V14.01,2013-04-09 19:20:00,
2013-04-09 12:25:00,49.2,42.6,30.34,SSW,207,1.0,6.0,78,0.00,,---,0.00,VWS V14.01,2013-04-09 19:25:00,
2013-04-09 12:30:00,49.4,42.5,30.34,South,173,0.0,6.0,77,0.00,,---,0.00,VWS V14.01,2013-04-09 19:30:00,
2013-04-09 12:35:00,49.3,42.1,30.33,ESE,102,1.0,5.0,76,0.00,,---,0.00,VWS V14.01,2013-04-09 19:35:00,
2013-04-09 12:40:00,49.2,42.0,30.33,ENE,65,2.0,5.0,76,0.00,,---,0.00,VWS V14.01,2013-04-09 19:40:00,
2013-04-09 12:45:00,49.2,42.0,30.33,SW,227,4.0,5.0,76,0.00,,---,0.00,VWS V14.01,2013-04-09 19:45:00,
2013-04-09 12:50:00,49.0,41.8,30.33,WNW,284,0.0,3.0,76,0.00,,---,0.00,VWS V14.01,2013-04-09 19:50:00,
2013-04-09 12:55:00,48.8,41.6,30.33,SE,128,3.0,4.0,76,0.00,,---,0.00,VWS V14.01,2013-04-09 19:55:00,
2013-04-09 13:00:00,48.7,41.8,30.33,East,90,0.0,4.0,77,0.00,,---,0.00,VWS V14.01,2013-04-09 20:00:00,
2013-04-09 13:05:00,48.7,41.8,30.33,East,98,1.0,5.0,77,0.00,,---,0.00,VWS V14.01,2013-04-09 20:05:00,
2013-04-09 13:10:00,48.8,41.9,30.33,ESE,121,3.0,5.0,77,0.00,,---,0.00,VWS V14.01,2013-04-09 20:10:00,
2013-04-09 13:15:00,48.7,41.5,30.33,SSE,147,0.0,5.0,76,0.00,,---,0.00,VWS V14.01,2013-04-09 20:15:00,
2013-04-09 13:20:00,48.8,41.6,30.32,SE,136,0.0,7.0,76,0.00,,---,0.00,VWS V14.01,2013-04-09 20:20:00,
2013-04-09 13:25:00,48.8,41.2,30.32,SE,135,1.0,7.0,75,0.00,,---,0.00,VWS V14.01,2013-04-09 20:25:00,
2013-04-09 13:30:00,48.8,41.6,30.32,East,94,3.0,7.0,76,0.00,,---,0.00,VWS V14.01,2013-04-09 20:30:00,
2013-04-09 13:35:00,48.9,41.7,30.32,SSE,156,4.0,6.0,76,0.00,,---,0.00,VWS V14.01,2013-04-09 20:35:00,
2013-04-09 13:40:00,49.0,42.1,30.32,East,79,2.0,6.0,77,0.00,,---,0.00,VWS V14.01,2013-04-09 20:40:00,
2013-04-09 13:45:00,49.1,41.9,30.31,SE,138,3.0,4.0,76,0.00,,---,0.00,VWS V14.01,2013-04-09 20:45:00,
2013-04-09 13:50:00,49.2,42.0,30.32,NNE,29,3.0,4.0,76,0.00,,---,0.00,VWS V14.01,2013-04-09 20:50:00,
2013-04-09 13:55:00,49.2,41.6,30.32,ESE,107,2.0,6.0,75,0.00,,---,0.00,VWS V14.01,2013-04-09 20:55:00,
2013-04-09 14:01:00,49.2,42.0,30.32,SSE,158,3.0,5.0,76,0.00,,---,0.00,VWS V14.01,2013-04-09 21:01:00,
2013-04-09 14:06:00,49.3,42.1,30.32,SSW,209,4.0,5.0,76,0.00,,---,0.00,VWS V14.01,2013-04-09 21:06:00,
2013-04-09 14:11:00,49.6,42.7,30.32,ESE,113,0.0,5.0,77,0.00,,---,0.00,VWS V14.01,2013-04-09 21:11:00,
2013-04-09 14:16:00,49.9,42.3,30.31,ENE,57,0.0,2.0,75,0.00,,---,0.00,VWS V14.01,2013-04-09 21:16:00,
2013-04-09 14:21:00,49.9,42.0,30.31,East,91,1.0,7.0,74,0.00,,---,0.00,VWS V14.01,2013-04-09 21:21:00,
2013-04-09 14:26:00,49.9,42.3,30.31,West,263,0.0,7.0,75,0.00,,---,0.00,VWS V14.01,2013-04-09 21:26:00,
2013-04-09 14:31:00,50.6,42.6,30.31,East,90,8.0,8.0,74,0.00,,---,0.00,VWS V14.01,2013-04-09 21:31:00,
2013-04-09 14:36:00,50.4,41.7,30.31,SE,130,2.0,8.0,72,0.00,,---,0.00,VWS V14.01,2013-04-09 21:36:00,
2013-04-09 14:41:00,50.4,41.7,30.31,SE,139,5.0,8.0,72,0.00,,---,0.00,VWS V14.01,2013-04-09 21:41:00,
2013-04-09 14:46:00,50.5,42.2,30.31,SW,229,0.0,1.0,73,0.00,,---,0.00,VWS V14.01,2013-04-09 21:46:00,
2013-04-09 14:51:00,50.8,42.5,30.31,SE,129,2.0,6.0,73,0.00,,---,0.00,VWS V14.01,2013-04-09 21:51:00,
2013-04-09 14:56:00,50.5,41.8,30.30,NE,34,2.0,10.0,72,0.00,,---,0.00,VWS V14.01,2013-04-09 21:56:00,
2013-04-09 15:01:00,50.9,42.2,30.30,ENE,75,1.0,4.0,72,0.00,,---,0.00,VWS V14.01,2013-04-09 22:01:00,
2013-04-09 15:06:00,51.2,42.5,30.30,SSW,211,2.0,7.0,72,0.00,,---,0.00,VWS V14.01,2013-04-09 22:06:00,
2013-04-09 15:11:00,51.4,42.3,30.29,ESE,112,3.0,7.0,71,0.00,,---,0.00,VWS V14.01,2013-04-09 22:11:00,
2013-04-09 15:17:00,51.5,42.0,30.29,SE,130,1.0,3.0,70,0.00,,---,0.00,VWS V14.01,2013-04-09 22:17:00,
2013-04-09 15:22:00,51.8,42.3,30.29,ESE,119,5.0,7.0,70,0.00,,---,0.00,VWS V14.01,2013-04-09 22:22:00,
2013-04-09 15:27:00,51.9,41.7,30.29,East,100,3.0,7.0,68,0.00,,---,0.00,VWS V14.01,2013-04-09 22:27:00,
2013-04-09 15:32:00,51.8,41.6,30.29,ENE,67,2.0,5.0,68,0.00,,---,0.00,VWS V14.01,2013-04-09 22:32:00,
2013-04-09 15:37:00,51.9,41.3,30.29,East,98,5.0,8.0,67,0.00,,---,0.00,VWS V14.01,2013-04-09 22:37:00,
2013-04-09 15:42:00,51.8,40.0,30.28,ENE,71,3.0,9.0,64,0.00,,---,0.00,VWS V14.01,2013-04-09 22:42:00,
2013-04-09 15:47:00,51.6,39.8,30.28,SE,135,6.0,6.0,64,0.00,,---,0.00,VWS V14.01,2013-04-09 22:47:00,
2013-04-09 15:52:00,51.7,39.9,30.28,ENE,78,2.0,6.0,64,0.00,,---,0.00,VWS V14.01,2013-04-09 22:52:00,
2013-04-09 15:57:00,52.0,40.6,30.28,NNE,29,6.0,6.0,65,0.00,,---,0.00,VWS V14.01,2013-04-09 22:57:00,
2013-04-09 16:02:00,52.2,39.6,30.28,ESE,123,4.0,7.0,62,0.00,,---,0.00,VWS V14.01,2013-04-09 23:02:00,
2013-04-09 16:07:00,52.2,40.0,30.28,East,99,2.0,8.0,63,0.00,,---,0.00,VWS V14.01,2013-04-09 23:07:00,
2013-04-09 16:12:00,52.3,40.1,30.28,ENE,59,2.0,8.0,63,0.00,,---,0.00,VWS V14.01,2013-04-09 23:12:00,
2013-04-09 16:17:00,52.6,39.1,30.28,SE,143,3.0,4.0,60,0.00,,---,0.00,VWS V14.01,2013-04-09 23:17:00,
2013-04-09 16:22:00,52.9,39.4,30.28,ESE,106,7.0,7.0,60,0.00,,---,0.00,VWS V14.01,2013-04-09 23:22:00,
2013-04-09 16:27:00,53.0,38.2,30.28,SE,132,3.0,7.0,57,0.00,,---,0.00,VWS V14.01,2013-04-09 23:27:00,
2013-04-09 16:32:00,53.1,37.4,30.27,East,96,2.0,3.0,55,0.00,,---,0.00,VWS V14.01,2013-04-09 23:32:00,
2013-04-09 16:37:00,53.0,36.3,30.28,ESE,112,5.0,7.0,53,0.00,,---,0.00,VWS V14.01,2013-04-09 23:37:00,
2013-04-09 16:42:00,53.0,36.3,30.27,North,360,0.0,7.0,53,0.00,,---,0.00,VWS V14.01,2013-04-09 23:42:00,
2013-04-09 16:47:00,53.2,37.0,30.27,West,269,0.0,6.0,54,0.00,,---,0.00,VWS V14.01,2013-04-09 23:47:00,
2013-04-09 16:52:00,53.2,37.5,30.27,NE,52,6.0,9.0,55,0.00,,---,0.00,VWS V14.01,2013-04-09 23:52:00,
2013-04-09 16:57:00,53.0,38.2,30.27,ESE,109,3.0,9.0,57,0.00,,---,0.00,VWS V14.01,2013-04-09 23:57:00,
2013-04-09 17:02:00,52.6,38.3,30.27,SE,138,2.0,7.0,58,0.00,,---,0.00,VWS V14.01,2013-04-10 00:02:00,
2013-04-09 17:07:00,52.3,38.4,30.27,NW,315,2.0,10.0,59,0.00,,---,0.00,VWS V14.01,2013-04-10 00:07:00,
2013-04-09 17:12:00,52.4,38.9,30.26,East,82,1.0,10.0,60,0.00,,---,0.00,VWS V14.01,2013-04-10 00:12:00,
2013-04-09 17:17:00,52.4,39.4,30.27,ESE,107,0.0,5.0,61,0.00,,---,0.00,VWS V14.01,2013-04-10 00:17:00,
2013-04-09 17:22:00,52.6,39.5,30.27,NNE,26,0.0,5.0,61,0.00,,---,0.00,VWS V14.01,2013-04-10 00:22:00,
2013-04-09 17:27:00,52.5,39.9,30.27,ENE,61,8.0,8.0,62,0.00,,---,0.00,VWS V14.01,2013-04-10 00:27:00,
2013-04-09 17:32:00,52.4,39.8,30.26,NNE,21,6.0,7.0,62,0.00,,---,0.00,VWS V14.01,2013-04-10 00:32:00,
2013-04-09 17:37:00,52.5,40.3,30.27,SE,142,1.0,7.0,63,0.00,,---,0.00,VWS V14.01,2013-04-10 00:37:00,
2013-04-09 17:42:00,52.7,40.5,30.26,South,188,0.0,7.0,63,0.00,,---,0.00,VWS V14.01,2013-04-10 00:42:00,
2013-04-09 17:47:00,52.4,40.2,30.26,SE,131,4.0,6.0,63,0.00,,---,0.00,VWS V14.01,2013-04-10 00:47:00,
2013-04-09 17:52:00,52.1,40.3,30.26,ESE,122,2.0,8.0,64,0.00,,---,0.00,VWS V14.01,2013-04-10 00:52:00,
2013-04-09 17:57:00,52.0,40.6,30.26,ENE,59,0.0,8.0,65,0.00,,---,0.00,VWS V14.01,2013-04-10 00:57:00,
2013-04-09 18:02:00,51.8,40.4,30.26,South,178,2.0,6.0,65,0.00,,---,0.00,VWS V14.01,2013-04-10 01:02:00,
2013-04-09 18:07:00,51.6,40.6,30.26,ESE,110,2.0,8.0,66,0.00,,---,0.00,VWS V14.01,2013-04-10 01:07:00,
2013-04-09 18:12:00,51.4,40.4,30.26,ESE,121,4.0,8.0,66,0.00,,---,0.00,VWS V14.01,2013-04-10 01:12:00,
2013-04-09 18:17:00,51.3,40.7,30.25,ESE,113,5.0,8.0,67,0.00,,---,0.00,VWS V14.01,2013-04-10 01:17:00,
2013-04-09 18:22:00,51.2,41.0,30.26,SSW,194,2.0,8.0,68,0.00,,---,0.00,VWS V14.01,2013-04-10 01:22:00,
2013-04-09 18:27:00,51.2,41.4,30.25,NE,52,3.0,8.0,69,0.00,,---,0.00,VWS V14.01,2013-04-10 01:27:00,
2013-04-09 18:32:00,51.2,41.0,30.25,ENE,67,3.0,6.0,68,0.00,,---,0.00,VWS V14.01,2013-04-10 01:32:00,
2013-04-09 18:37:00,51.1,41.3,30.25,ESE,117,1.0,6.0,69,0.00,,---,0.00,VWS V14.01,2013-04-10 01:37:00,
2013-04-09 18:42:00,51.0,41.6,30.25,NE,42,0.0,6.0,70,0.00,,---,0.00,VWS V14.01,2013-04-10 01:42:00,
2013-04-09 18:47:00,51.0,41.6,30.24,North,355,0.0,1.0,70,0.00,,---,0.00,VWS V14.01,2013-04-10 01:47:00,
2013-04-09 18:52:00,51.0,41.6,30.24,ESE,119,0.0,7.0,70,0.00,,---,0.00,VWS V14.01,2013-04-10 01:52:00,
2013-04-09 18:57:00,50.9,41.5,30.24,SSE,147,0.0,7.0,70,0.00,,---,0.00,VWS V14.01,2013-04-10 01:57:00,
2013-04-09 19:02:00,50.9,41.8,30.24,NE,44,2.0,4.0,71,0.00,,---,0.00,VWS V14.01,2013-04-10 02:02:00,
2013-04-09 19:07:00,50.8,41.8,30.24,SW,226,1.0,7.0,71,0.00,,---,0.00,VWS V14.01,2013-04-10 02:07:00,
2013-04-09 19:12:00,50.8,41.8,30.24,ENE,60,7.0,8.0,71,0.00,,---,0.00,VWS V14.01,2013-04-10 02:12:00,
2013-04-09 19:17:00,50.8,41.8,30.23,NNE,17,2.0,3.0,71,0.00,,---,0.00,VWS V14.01,2013-04-10 02:17:00,
2013-04-09 19:22:00,50.7,41.7,30.23,ESE,114,0.0,7.0,71,0.00,,---,0.00,VWS V14.01,2013-04-10 02:22:00,
2013-04-09 19:27:00,50.7,41.7,30.23,East,98,1.0,7.0,71,0.00,,---,0.00,VWS V14.01,2013-04-10 02:27:00,
2013-04-09 19:32:00,50.6,41.9,30.23,East,100,0.0,3.0,72,0.00,,---,0.00,VWS V14.01,2013-04-10 02:32:00,
2013-04-09 19:37:00,50.4,41.7,30.23,SSE,163,3.0,5.0,72,0.00,,---,0.00,VWS V14.01,2013-04-10 02:37:00,
2013-04-09 19:42:00,50.4,42.1,30.23,SSE,155,0.0,5.0,73,0.00,,---,0.00,VWS V14.01,2013-04-10 02:42:00,
2013-04-09 19:47:00,50.3,42.0,30.23,SSE,153,2.0,6.0,73,0.00,,---,0.00,VWS V14.01,2013-04-10 02:47:00,
2013-04-09 19:52:00,50.3,42.0,30.22,East,86,2.0,6.0,73,0.00,,---,0.00,VWS V14.01,2013-04-10 02:52:00,
2013-04-09 19:57:00,50.2,41.9,30.22,SE,135,0.0,7.0,73,0.00,,---,0.00,VWS V14.01,2013-04-10 02:57:00,
2013-04-09 20:02:00,50.1,42.2,30.22,ENE,64,2.0,2.0,74,0.00,,---,0.00,VWS V14.01,2013-04-10 03:02:00,
2013-04-09 20:07:00,50.0,42.0,30.22,East,84,2.0,5.0,74,0.00,,---,0.00,VWS V14.01,2013-04-10 03:07:00,
2013-04-09 20:12:00,50.0,42.4,30.22,SE,130,3.0,5.0,75,0.00,,---,0.00,VWS V14.01,2013-04-10 03:12:00,
2013-04-09 20:17:00,50.0,42.0,30.22,East,85,1.0,5.0,74,0.00,,---,0.00,VWS V14.01,2013-04-10 03:17:00,
2013-04-09 20:22:00,50.0,42.0,30.22,East,101,1.0,5.0,74,0.00,,---,0.00,VWS V14.01,2013-04-10 03:22:00,
2013-04-09 20:27:00,49.9,42.0,30.22,ENE,58,0.0,5.0,74,0.00,,---,0.00,VWS V14.01,2013-04-10 03:27:00,
2013-04-09 20:32:00,49.9,42.3,30.22,ESE,110,1.0,3.0,75,0.00,,---,0.00,VWS V14.01,2013-04-10 03:32:00,
2013-04-09 20:37:00,49.7,42.1,30.22,South,169,2.0,8.0,75,0.00,,---,0.00,VWS V14.01,2013-04-10 03:37:00,
2013-04-09 20:42:00,49.6,42.0,30.22,ESE,114,2.0,8.0,75,0.00,,---,0.00,VWS V14.01,2013-04-10 03:42:00,
2013-04-09 20:47:00,49.6,42.0,30.21,East,85,0.0,6.0,75,0.00,,---,0.00,VWS V14.01,2013-04-10 03:47:00,
2013-04-09 20:52:00,49.6,42.0,30.21,NNW,348,2.0,7.0,75,0.00,,---,0.00,VWS V14.01,2013-04-10 03:52:00,
2013-04-09 20:57:00,49.5,41.9,30.22,East,98,2.0,7.0,75,0.00,,---,0.00,VWS V14.01,2013-04-10 03:57:00,
2013-04-09 21:00:00,49.4,41.8,30.22,ENE,78,3.0,7.0,75,0.00,,---,0.00,VWS V14.01,2013-04-10 04:00:00,
2013-04-09 21:05:00,49.3,42.1,30.22,East,96,2.0,7.0,76,0.00,,---,0.00,VWS V14.01,2013-04-10 04:05:00,
2013-04-09 21:10:00,49.2,42.0,30.22,ENE,69,2.0,7.0,76,0.00,,---,0.00,VWS V14.01,2013-04-10 04:10:00,
2013-04-09 21:15:00,49.1,41.9,30.22,SSE,165,2.0,7.0,76,0.00,,---,0.00,VWS V14.01,2013-04-10 04:15:00,
2013-04-09 21:20:00,49.2,41.6,30.22,NNE,31,3.0,6.0,75,0.00,,---,0.00,VWS V14.01,2013-04-10 04:20:00,
2013-04-09 21:25:00,49.2,41.3,30.21,ENE,65,0.0,6.0,74,0.00,,---,0.00,VWS V14.01,2013-04-10 04:25:00,
2013-04-09 21:30:00,49.3,41.0,30.22,SSW,207,1.0,7.0,73,0.00,,---,0.00,VWS V14.01,2013-04-10 04:30:00,
2013-04-09 21:35:00,49.4,41.1,30.21,ENE,78,0.0,6.0,73,0.00,,---,0.00,VWS V14.01,2013-04-10 04:35:00,
2013-04-09 21:40:00,49.5,41.6,30.21,SE,135,1.0,7.0,74,0.00,,---,0.00,VWS V14.01,2013-04-10 04:40:00,
2013-04-09 21:45:00,49.5,41.6,30.21,East,82,3.0,7.0,74,0.00,,---,0.00,VWS V14.01,2013-04-10 04:45:00,
2013-04-09 21:50:00,49.5,41.6,30.21,ESE,106,1.0,9.0,74,0.00,,---,0.00,VWS V14.01,2013-04-10 04:50:00,
2013-04-09 21:55:00,49.5,41.6,30.20,SE,126,4.0,9.0,74,0.00,,---,0.00,VWS V14.01,2013-04-10 04:55:00,
2013-04-09 22:00:00,49.4,41.5,30.20,SSE,161,1.0,9.0,74,0.00,,---,0.00,VWS V14.01,2013-04-10 05:00:00,
2013-04-09 22:05:00,49.3,41.4,30.20,SE,125,0.0,5.0,74,0.00,,---,0.00,VWS V14.01,2013-04-10 05:05:00,
2013-04-09 22:10:00,49.3,41.4,30.20,ESE,103,5.0,5.0,74,0.00,,---,0.00,VWS V14.01,2013-04-10 05:10:00,
2013-04-09 22:15:00,49.2,41.3,30.20,East,82,1.0,7.0,74,0.00,,---,0.00,VWS V14.01,2013-04-10 05:15:00,
2013-04-09 22:20:00,49.2,41.3,30.20,ENE,75,3.0,6.0,74,0.00,,---,0.00,VWS V14.01,2013-04-10 05:20:00,
2013-04-09 22:25:00,49.2,40.9,30.19,NE,34,1.0,8.0,73,0.00,,---,0.00,VWS V14.01,2013-04-10 05:25:00,
2013-04-09 22:30:00,49.2,40.9,30.20,NNE,30,0.0,8.0,73,0.00,,---,0.00,VWS V14.01,2013-04-10 05:30:00,
2013-04-09 22:35:00,49.2,40.6,30.19,ENE,73,2.0,7.0,72,0.00,,---,0.00,VWS V14.01,2013-04-10 05:35:00,
2013-04-09 22:40:00,49.2,40.2,30.19,East,80,2.0,7.0,71,0.00,,---,0.00,VWS V14.01,2013-04-10 05:40:00,
2013-04-09 22:45:00,49.2,40.2,30.20,SSE,165,3.0,7.0,71,0.00,,---,0.00,VWS V14.01,2013-04-10 05:45:00,
2013-04-09 22:50:00,49.2,40.2,30.20,NE,54,2.0,4.0,71,0.00,,---,0.00,VWS V14.01,2013-04-10 05:50:00,
2013-04-09 22:55:00,49.1,40.1,30.20,SE,134,5.0,6.0,71,0.00,,---,0.00,VWS V14.01,2013-04-10 05:55:00,
2013-04-09 23:00:00,49.1,40.5,30.20,North,5,0.0,6.0,72,0.00,,---,0.00,VWS V14.01,2013-04-10 06:00:00,
2013-04-09 23:05:00,49.0,40.4,30.19,SSE,162,1.0,5.0,72,0.00,,---,0.00,VWS V14.01,2013-04-10 06:05:00,
2013-04-09 23:10:00,48.9,40.3,30.18,East,101,6.0,6.0,72,0.00,,---,0.00,VWS V14.01,2013-04-10 06:10:00,
2013-04-09 23:15:00,48.7,40.5,30.18,ENE,65,2.0,8.0,73,0.00,,---,0.00,VWS V14.01,2013-04-10 06:15:00,
2013-04-09 23:20:00,48.7,40.5,30.17,East,96,2.0,6.0,73,0.00,,---,0.00,VWS V14.01,2013-04-10 06:20:00,
2013-04-09 23:25:00,48.6,40.3,30.17,ENE,63,2.0,8.0,73,0.00,,---,0.00,VWS V14.01,2013-04-10 06:25:00,
2013-04-09 23:30:00,48.6,40.3,30.17,NNE,15,1.0,8.0,73,0.00,,---,0.00,VWS V14.01,2013-04-10 06:30:00,
2013-04-09 23:35:00,48.5,40.6,30.17,East,88,0.0,5.0,74,0.00,,---,0.00,VWS V14.01,2013-04-10 06:35:00,
2013-04-09 23:40:00,48.4,40.5,30.17,SSE,167,1.0,5.0,74,0.00,,---,0.00,VWS V14.01,2013-04-10 06:40:00,
2013-04-09 23:45:00,48.4,40.8,30.17,ENE,63,1.0,5.0,75,0.00,,---,0.00,VWS V14.01,2013-04-10 06:45:00,
2013-04-09 23:50:00,48.4,40.8,30.17,NE,48,4.0,5.0,75,0.00,,---,0.00,VWS V14.01,2013-04-10 06:50:00,
2013-04-09 23:55:00,48.4,40.8,30.17,NNW,348,1.0,7.0,75,0.00,,---,0.00,VWS V14.01,2013-04-10 06:55:00,